KPMH/PMH METAR and TAF weather

Enter ICAO airport designator
Station Type Date Time Source
KPMH METAR 2021/05/12 03:59 UTC NOAA

KPMH 120359Z AUTO 32003KT 10SM CLR 09/01 A3033 RMK AO2


Station Type Date Time Source
KPMH Decoded METAR 2021/05/12 03:59 UTC NOAA

Station name not available
May 11, 2021 - 11:59 PM EDT / 2021.05.12 0359 UTC
Wind: from the NW (320 degrees) at 3 MPH (3 KT):0
Visibility: 10 mile(s):0
Sky conditions: clear
Temperature: 48 F (9 C)
Dew Point: 33 F (1 C)
Relative Humidity: 57%
Pressure (altimeter): 30.33 in. Hg (1027 hPa)
ob: KPMH 120359Z AUTO 32003KT 10SM CLR 09/01 A3033 RMK AO2
cycle: 4

Station Type Date Time Source
KPMH TAF UTC NOAA

Error!

Example: see airport list